Аэропорт: им. Гейдара Алиева. Баку

ICAO: UBBB

METAR:
2019-12-12 10:30:00
UBBB 121030Z 18006KT 9999 BKN024 09/04 Q1021 R88/D NOSIG
METAR:
2019-12-12 05:08:00
TAF UBBB 120508Z 1206/1306 31006KT 9999 SCT020 TX09/1210Z TN06/1302Z TEMPO 1206/1209 VRB04KT BECMG 1209/1211 15008KT TEMPO 1211/1223 VRB04KT BKN016